Time;durP1;ratioP1;P1;durP2;ratioP2;P2;SDS_P1;SDS_P2;PMS_P1;PMS_P2;Temp;Humidity;BMP_temperature;BMP_pressure;BME280_temperature;BME280_humidity;BME280_pressure;Samples;Min_cycle;Max_cycle;Signal;HPM_P1;HPM_P2
2021/07/24 00:00:00;;;;;;;19.57;14.73;;;;;;;15.30;70.65;100558.42;1673950;84;21068;-74
2021/07/24 00:02:26;;;;;;;20.32;15.18;;;;;;;15.29;70.70;100551.38;1704911;84;21150;-73
2021/07/24 00:04:52;;;;;;;20.17;15.00;;;;;;;15.25;70.77;100550.10;1694391;84;21006;-74
2021/07/24 00:07:18;;;;;;;23.32;15.78;;;;;;;15.24;70.85;100552.47;1694392;84;21054;-74
2021/07/24 00:09:44;;;;;;;22.15;15.58;;;;;;;15.19;70.91;100553.58;1682464;83;21018;-74
2021/07/24 00:12:13;;;;;;;21.97;14.35;;;;;;;15.16;71.00;100553.98;1674675;85;21048;-74
2021/07/24 00:14:40;;;;;;;20.70;15.30;;;;;;;15.11;71.05;100548.34;1675617;84;21169;-74
2021/07/24 00:17:06;;;;;;;18.42;14.98;;;;;;;15.09;71.14;100543.70;1675779;84;21073;-74
2021/07/24 00:19:32;;;;;;;24.45;16.05;;;;;;;15.08;71.22;100551.43;1675488;84;21076;-74
2021/07/24 00:21:58;;;;;;;21.82;14.83;;;;;;;15.05;71.26;100548.30;1675202;84;21021;-74
2021/07/24 00:24:24;;;;;;;19.20;14.35;;;;;;;15.03;71.33;100544.45;1674485;85;21108;-73
2021/07/24 00:26:50;;;;;;;20.88;15.30;;;;;;;15.02;71.37;100549.53;1674707;84;21071;-74
2021/07/24 00:29:16;;;;;;;22.67;15.08;;;;;;;15.00;71.43;100544.85;1674495;85;21499;-73
2021/07/24 00:31:43;;;;;;;20.40;14.60;;;;;;;14.97;71.48;100545.25;1674613;84;21598;-74
2021/07/24 00:34:09;;;;;;;24.90;15.80;;;;;;;14.95;71.53;100548.66;1674375;85;21499;-74
2021/07/24 00:36:35;;;;;;;21.45;14.40;;;;;;;14.93;71.61;100548.00;1674773;84;21013;-74
2021/07/24 00:39:01;;;;;;;21.80;16.30;;;;;;;14.90;71.67;100540.34;1675568;84;21517;-74
2021/07/24 00:41:41;;;;;;;21.57;15.58;;;;;;;14.89;71.73;100539.50;1675423;85;20994;-74
2021/07/24 00:44:07;;;;;;;22.10;16.07;;;;;;;14.87;71.73;100536.70;1675711;84;21064;-74
2021/07/24 00:46:33;;;;;;;22.27;15.60;;;;;;;14.88;71.84;100539.17;1675303;85;21009;-74
2021/07/24 00:49:00;;;;;;;20.92;14.58;;;;;;;14.88;71.88;100538.37;1675765;84;21032;-74
2021/07/24 00:51:28;;;;;;;20.62;15.63;;;;;;;14.76;71.91;100521.11;1676418;84;21132;-73
2021/07/24 00:53:55;;;;;;;20.20;14.53;;;;;;;14.70;71.79;100520.55;1683065;85;21036;-74
2021/07/24 00:56:24;;;;;;;21.17;15.25;;;;;;;14.79;72.24;100538.17;1683005;85;21012;-74
2021/07/24 00:58:50;;;;;;;20.27;15.13;;;;;;;14.79;72.24;100538.17;1666170;85;21573;-74
2021/07/24 01:01:16;;;;;;;21.37;15.93;;;;;;;14.76;72.20;100533.19;1678597;85;21004;-74
2021/07/24 01:03:42;;;;;;;23.73;16.57;;;;;;;14.76;72.20;100533.19;1682742;85;21725;-73
2021/07/24 01:06:08;;;;;;;22.37;16.23;;;;;;;14.75;72.28;100534.20;1682717;85;21029;-74
2021/07/24 01:08:36;;;;;;;22.52;15.58;;;;;;;14.73;72.51;100532.24;1682723;85;21546;-74
2021/07/24 01:11:03;;;;;;;24.75;15.43;;;;;;;14.71;72.40;100538.30;1682637;85;21045;-73
2021/07/24 01:13:29;;;;;;;20.00;14.93;;;;;;;14.69;72.46;100534.98;1682744;85;21619;-74
2021/07/24 01:15:55;;;;;;;22.30;15.72;;;;;;;14.66;72.79;100536.72;1682531;85;21761;-73
2021/07/24 01:18:22;;;;;;;21.20;15.38;;;;;;;14.61;72.67;100529.74;1682937;85;21009;-73
2021/07/24 01:20:50;;;;;;;25.65;15.53;;;;;;;14.61;72.67;100529.74;1671138;85;21033;-73
2021/07/24 01:23:17;;;;;;;24.05;15.98;;;;;;;14.59;72.88;100531.80;1655312;85;21075;-74
2021/07/24 01:25:50;;;;;;;28.92;17.65;;;;;;;14.59;72.88;100531.80;1682917;85;21546;-74
2021/07/24 01:28:29;;;;;;;22.20;16.05;;;;;;;14.39;72.96;100498.89;1682521;85;21227;-74
2021/07/24 01:30:55;;;;;;;24.15;16.40;;;;;;;14.39;72.96;100498.89;1683210;85;21005;-73
2021/07/24 01:33:21;;;;;;;21.15;16.12;;;;;;;14.45;73.00;100533.03;1683114;85;21048;-73
2021/07/24 01:35:48;;;;;;;22.98;16.90;;;;;;;14.28;73.22;100503.42;1683033;85;21061;-74
2021/07/24 01:38:15;;;;;;;21.65;15.90;;;;;;;14.28;73.22;100503.42;1682907;85;21001;-73
2021/07/24 01:40:41;;;;;;;24.40;16.12;;;;;;;14.37;73.21;100523.76;1682983;85;21814;-73
2021/07/24 01:43:07;;;;;;;23.83;16.02;;;;;;;14.36;73.28;100522.09;1682911;85;21518;-73
2021/07/24 01:45:33;;;;;;;23.73;16.73;;;;;;;14.35;73.37;100525.81;1683194;85;21040;-73
2021/07/24 01:48:00;;;;;;;21.60;15.98;;;;;;;14.33;73.43;100523.78;1682933;85;21024;-74
2021/07/24 01:53:10;;;;;;;22.52;15.93;;;;;;;14.27;73.54;100509.80;1682783;84;21258;-74
2021/07/24 01:55:45;;;;;;;22.87;16.62;;;;;;;14.19;73.58;100502.38;1682741;85;21049;-73
2021/07/24 01:58:17;;;;;;;23.98;17.45;;;;;;;14.29;73.76;100516.30;1680363;84;21009;-74
2021/07/24 02:00:43;;;;;;;23.12;17.10;;;;;;;14.27;73.69;100517.84;1640870;85;21545;-74
2021/07/24 02:03:12;;;;;;;22.52;16.42;;;;;;;14.11;73.72;100491.25;1673066;84;21574;-73
2021/07/24 02:05:46;;;;;;;22.13;17.23;;;;;;;14.19;73.82;100510.42;1681113;85;21031;-74
2021/07/24 02:08:14;;;;;;;21.90;15.85;;;;;;;14.18;73.89;100513.61;1682701;85;21080;-74
2021/07/24 02:10:42;;;;;;;29.40;17.70;;;;;;;14.18;73.89;100513.61;1682101;85;21080;-74
2021/07/24 02:13:12;;;;;;;20.88;16.37;;;;;;;14.15;74.03;100501.92;1682681;85;21053;-73
2021/07/24 02:15:38;;;;;;;24.10;16.30;;;;;;;14.15;74.03;100501.92;1681623;85;21025;-74
2021/07/24 02:18:04;;;;;;;24.65;16.87;;;;;;;14.13;74.10;100508.00;1682908;85;21138;-74
2021/07/24 02:20:30;;;;;;;24.43;16.45;;;;;;;14.10;74.17;100504.36;1682650;85;21045;-73
2021/07/24 02:22:56;;;;;;;21.27;16.05;;;;;;;14.08;74.22;100499.68;1681027;85;21081;-73
2021/07/24 02:25:23;;;;;;;30.00;15.80;;;;;;;14.07;74.29;100498.04;1682949;85;21548;-73
2021/07/24 02:27:50;;;;;;;25.12;17.12;;;;;;;14.06;74.34;100499.56;1682884;85;21044;-74
2021/07/24 02:30:16;;;;;;;26.00;17.67;;;;;;;13.95;74.46;100484.80;1682019;85;21199;-73
2021/07/24 02:32:43;;;;;;;27.75;18.27;;;;;;;13.95;74.46;100484.80;1682704;85;21028;-74
2021/07/24 02:35:10;;;;;;;27.37;18.02;;;;;;;14.03;74.81;100499.44;1682925;85;21514;-74
2021/07/24 02:37:36;;;;;;;29.77;19.02;;;;;;;14.03;74.81;100499.44;1682608;85;21021;-73
2021/07/24 02:40:03;;;;;;;28.42;18.65;;;;;;;14.02;74.67;100507.16;1682933;85;21026;-73
2021/07/24 02:42:29;;;;;;;29.95;19.67;;;;;;;14.02;74.71;100508.49;1681966;85;21255;-73
2021/07/24 02:44:55;;;;;;;36.05;20.10;;;;;;;14.04;74.78;100502.95;1681967;85;21048;-73
2021/07/24 02:47:21;;;;;;;30.50;18.98;;;;;;;14.04;74.80;100501.08;1682282;85;21016;-73
2021/07/24 02:49:47;;;;;;;26.65;18.00;;;;;;;14.01;74.87;100498.78;1683230;85;21002;-73
2021/07/24 02:52:14;;;;;;;28.47;20.15;;;;;;;13.99;74.93;100496.81;1681715;84;21522;-73
2021/07/24 02:54:40;;;;;;;29.48;20.12;;;;;;;13.98;74.98;100493.80;1675478;84;21763;-73
2021/07/24 02:57:06;;;;;;;26.50;18.02;;;;;;;13.99;75.06;100494.13;1675451;85;21041;-73
2021/07/24 02:59:32;;;;;;;28.07;18.52;;;;;;;14.00;75.12;100494.45;1675638;85;21065;-73
2021/07/24 03:01:58;;;;;;;23.70;18.07;;;;;;;14.01;75.23;100498.78;1675501;84;21065;-73
2021/07/24 03:04:24;;;;;;;33.48;18.17;;;;;;;14.02;75.29;100495.09;1675687;84;21006;-73
2021/07/24 03:06:50;;;;;;;29.70;17.57;;;;;;;14.03;75.35;100499.44;1675556;84;21179;-73
2021/07/24 03:09:16;;;;;;;29.52;17.60;;;;;;;14.08;75.41;100502.36;1675334;84;21521;-73
2021/07/24 03:11:42;;;;;;;26.80;18.05;;;;;;;14.15;75.45;100508.63;1675695;85;21002;-73
2021/07/24 03:14:08;;;;;;;24.35;17.48;;;;;;;14.18;75.46;100508.23;1675901;84;21057;-73
2021/07/24 03:16:34;;;;;;;23.85;17.35;;;;;;;14.23;75.53;100509.86;1675609;85;21025;-74
2021/07/24 03:19:00;;;;;;;24.70;16.35;;;;;;;14.30;75.57;100514.78;1675528;85;21152;-73
2021/07/24 03:21:26;;;;;;;27.87;18.25;;;;;;;14.35;75.62;100513.73;1675299;84;21074;-73
2021/07/24 03:23:52;;;;;;;29.27;18.37;;;;;;;14.40;75.64;100507.27;1675436;84;21581;-73
2021/07/24 03:26:19;;;;;;;29.12;18.48;;;;;;;14.46;75.69;100505.69;1675530;85;21033;-73
2021/07/24 03:28:45;;;;;;;27.50;18.50;;;;;;;14.54;75.70;100507.38;1675636;85;21009;-74
2021/07/24 03:31:12;;;;;;;29.07;19.23;;;;;;;14.63;75.73;100506.25;1675450;85;21089;-74
2021/07/24 03:33:38;;;;;;;31.20;18.37;;;;;;;14.74;75.76;100511.09;1675540;85;21506;-74
2021/07/24 03:36:07;;;;;;;29.55;18.37;;;;;;;14.87;75.75;100511.19;1675635;85;21497;-73
2021/07/24 03:38:33;;;;;;;26.27;19.00;;;;;;;15.00;75.75;100513.97;1675586;84;21523;-74
2021/07/24 03:41:04;;;;;;;26.42;17.02;;;;;;;15.24;75.80;100502.76;1675550;85;21032;-73
2021/07/24 03:43:31;;;;;;;27.82;18.42;;;;;;;15.24;75.80;100502.76;1656759;85;21318;-73
2021/07/24 03:45:57;;;;;;;24.92;16.95;;;;;;;15.32;75.71;100506.64;1675506;85;21022;-74
2021/07/24 03:48:23;;;;;;;25.35;17.02;;;;;;;15.45;75.79;100504.02;1675224;85;21466;-73
2021/07/24 03:50:49;;;;;;;29.10;18.20;;;;;;;15.45;75.79;100504.02;1675635;85;21088;-73
2021/07/24 03:53:16;;;;;;;22.77;17.55;;;;;;;15.58;75.66;100503.81;1668181;84;21048;-73
2021/07/24 03:55:42;;;;;;;27.32;16.90;;;;;;;15.58;75.66;100503.81;1659515;86;21021;-74
2021/07/24 03:58:08;;;;;;;23.32;16.95;;;;;;;15.65;75.64;100504.67;1659454;86;21045;-74
2021/07/24 04:00:44;;;;;;;22.87;16.60;;;;;;;15.73;75.61;100503.13;1659490;86;21068;-74
2021/07/24 04:03:08;;;;;;;27.32;18.40;;;;;;;15.78;75.55;100496.66;1659160;86;21529;-74
2021/07/24 04:05:42;;;;;;;29.37;18.23;;;;;;;15.80;75.51;100497.27;1659568;86;21049;-74
2021/07/24 04:08:08;;;;;;;37.03;17.80;;;;;;;15.80;75.44;100491.89;1659563;86;22149;-74
2021/07/24 04:10:34;;;;;;;22.82;17.20;;;;;;;15.82;75.48;100489.33;1659434;86;21041;-73
2021/07/24 04:13:03;;;;;;;26.33;16.00;;;;;;;15.92;75.43;100494.33;1659563;85;21032;-73
2021/07/24 04:15:29;;;;;;;26.00;17.60;;;;;;;16.03;75.35;100495.59;1659602;86;21104;-74
2021/07/24 04:17:58;;;;;;;27.13;16.85;;;;;;;16.09;75.28;100502.34;1659591;86;21501;-74
2021/07/24 04:20:24;;;;;;;23.10;16.73;;;;;;;16.15;75.23;100509.59;1659627;86;21225;-74
2021/07/24 04:22:50;;;;;;;28.25;17.25;;;;;;;16.20;75.17;100505.78;1659408;86;21048;-74
2021/07/24 04:25:17;;;;;;;23.12;16.20;;;;;;;16.27;75.10;100505.28;1659561;86;21054;-74
2021/07/24 04:27:44;;;;;;;23.27;15.20;;;;;;;16.28;74.99;100504.26;1659484;85;21081;-74
2021/07/24 04:30:10;;;;;;;22.75;15.83;;;;;;;16.27;74.97;100498.55;1659677;85;21048;-74
2021/07/24 04:32:36;;;;;;;24.67;16.90;;;;;;;16.49;75.06;100490.62;1659425;86;21825;-74
2021/07/24 04:35:06;;;;;;;26.05;17.07;;;;;;;17.06;75.15;100487.83;1659427;86;21589;-74
2021/07/24 04:37:32;;;;;;;24.45;16.15;;;;;;;18.01;74.96;100492.52;1659291;86;21009;-74
2021/07/24 04:39:59;;;;;;;23.60;16.37;;;;;;;18.80;74.37;100485.21;1659387;86;21094;-74
2021/07/24 04:42:25;;;;;;;19.85;15.30;;;;;;;19.55;73.80;100485.94;1638504;86;21512;-74
2021/07/24 04:44:51;;;;;;;21.23;15.30;;;;;;;20.13;73.03;100473.49;1659481;86;21864;-74
2021/07/24 04:47:17;;;;;;;23.12;15.25;;;;;;;20.63;72.00;100481.30;1659332;86;21005;-74
2021/07/24 04:49:49;;;;;;;23.38;14.10;;;;;;;20.78;71.35;100477.63;1659137;86;21525;-74
2021/07/24 04:52:15;;;;;;;23.18;14.50;;;;;;;20.89;71.05;100483.58;1629153;88;21067;-74
2021/07/24 04:54:42;;;;;;;26.37;14.60;;;;;;;20.88;70.99;100484.64;1618584;88;21063;-74
2021/07/24 04:57:08;;;;;;;21.25;13.72;;;;;;;21.03;70.81;100485.00;1621310;88;21130;-74
2021/07/24 04:59:36;;;;;;;19.70;14.03;;;;;;;21.15;70.51;100481.77;1616131;88;20998;-74
2021/07/24 05:02:02;;;;;;;20.75;14.55;;;;;;;21.29;70.17;100475.03;1641544;87;21002;-74
2021/07/24 05:04:28;;;;;;;21.57;13.93;;;;;;;21.57;69.79;100480.26;1646062;86;21447;-74
2021/07/24 05:06:55;;;;;;;20.82;14.20;;;;;;;21.88;69.28;100477.09;1632933;87;21524;-74
2021/07/24 05:09:21;;;;;;;20.75;13.93;;;;;;;22.08;68.78;100480.22;1632839;87;21667;-74
2021/07/24 05:11:47;;;;;;;19.98;13.30;;;;;;;22.25;68.30;100482.44;1632859;87;21001;-75
2021/07/24 05:14:14;;;;;;;18.30;12.45;;;;;;;22.45;67.79;100477.08;1632914;87;21032;-74
2021/07/24 05:16:40;;;;;;;16.55;12.78;;;;;;;22.53;67.32;100477.48;1632913;87;21091;-74
2021/07/24 05:19:07;;;;;;;21.05;13.55;;;;;;;22.77;66.87;100478.17;1644693;87;21457;-75
2021/07/24 05:21:34;;;;;;;16.15;12.18;;;;;;;23.09;66.41;100481.94;1603997;88;22228;-75
2021/07/24 05:24:00;;;;;;;14.85;11.48;;;;;;;23.31;65.77;100485.53;1603771;89;21014;-75
2021/07/24 05:26:26;;;;;;;19.25;11.63;;;;;;;23.18;65.15;100476.38;1604307;89;21455;-74
2021/07/24 05:28:52;;;;;;;14.35;10.90;;;;;;;23.04;64.56;100479.16;1627626;88;21087;-74
2021/07/24 05:31:19;;;;;;;15.40;11.18;;;;;;;23.08;64.17;100477.56;1645397;86;21037;-74
2021/07/24 05:33:45;;;;;;;12.20;10.75;;;;;;;23.28;63.66;100480.59;1605846;88;22546;-75
2021/07/24 05:36:11;;;;;;;14.20;11.75;;;;;;;23.30;63.02;100485.23;1635643;86;21005;-75
2021/07/24 05:38:38;;;;;;;16.32;11.80;;;;;;;23.39;62.53;100481.02;1630057;87;34407;-75
2021/07/24 05:41:04;;;;;;;14.53;11.22;;;;;;;23.61;62.00;100481.61;1649326;86;21009;-75
2021/07/24 05:43:30;;;;;;;13.88;11.10;;;;;;;23.72;61.51;100479.27;1649638;87;21041;-75
2021/07/24 05:45:56;;;;;;;13.83;10.50;;;;;;;23.70;60.97;100477.34;1645429;86;21977;-75
2021/07/24 05:48:22;;;;;;;12.82;10.43;;;;;;;23.82;60.35;100480.20;1623964;87;20964;-75
2021/07/24 05:50:48;;;;;;;17.12;9.98;;;;;;;23.85;59.70;100486.50;1644735;86;21088;-75
2021/07/24 05:53:14;;;;;;;17.07;10.70;;;;;;;23.83;59.05;100489.20;1648642;86;21068;-75
2021/07/24 05:55:40;;;;;;;11.10;9.35;;;;;;;24.07;58.80;100486.48;1647255;85;21376;-75
2021/07/24 05:58:09;;;;;;;12.90;9.58;;;;;;;24.44;58.32;100488.52;1646613;87;21909;-74
2021/07/24 06:00:35;;;;;;;12.07;10.53;;;;;;;24.48;57.75;100492.38;1647148;87;21013;-75
2021/07/24 06:03:02;;;;;;;18.10;10.00;;;;;;;24.21;57.28;100482.84;1665311;85;21079;-74
2021/07/24 06:05:28;;;;;;;14.47;10.63;;;;;;;24.00;56.97;100484.50;1634296;86;21437;-74
2021/07/24 06:07:54;;;;;;;12.75;10.50;;;;;;;24.24;56.79;100487.80;1648738;85;21486;-74
2021/07/24 06:10:20;;;;;;;13.98;10.30;;;;;;;24.33;56.47;100493.06;1647258;87;22415;-75
2021/07/24 06:12:47;;;;;;;15.72;10.40;;;;;;;24.30;56.27;100494.41;1647363;86;21044;-75
2021/07/24 06:15:13;;;;;;;13.88;10.43;;;;;;;24.14;56.04;100494.48;1647341;86;21060;-75
2021/07/24 06:17:39;;;;;;;15.78;9.60;;;;;;;24.21;55.81;100490.48;1647355;85;21072;-75
2021/07/24 06:20:06;;;;;;;20.12;10.53;;;;;;;24.23;55.67;100488.34;1647384;86;21029;-74
2021/07/24 06:22:32;;;;;;;15.50;10.40;;;;;;;23.97;55.45;100495.91;1647420;86;21752;-75
2021/07/24 06:24:58;;;;;;;17.48;11.12;;;;;;;23.60;55.43;100487.59;1647520;86;21017;-75
2021/07/24 06:27:24;;;;;;;18.95;10.50;;;;;;;23.56;55.42;100489.70;1647564;86;21522;-75
2021/07/24 06:29:50;;;;;;;13.53;10.85;;;;;;;23.83;55.34;100499.57;1647534;86;21409;-75
2021/07/24 06:32:16;;;;;;;16.45;10.88;;;;;;;24.12;55.22;100492.00;1647250;86;21422;-75
2021/07/24 06:34:42;;;;;;;20.30;16.27;;;;;;;24.32;55.05;100490.87;1656631;85;23604;-75
2021/07/24 06:37:08;;;;;;;18.90;10.85;;;;;;;24.69;54.95;100492.84;1647012;87;21013;-75
2021/07/24 06:39:34;;;;;;;14.45;9.78;;;;;;;24.97;54.67;100483.53;1647437;86;21021;-75
2021/07/24 06:42:00;;;;;;;14.28;10.68;;;;;;;25.20;54.49;100489.95;1647462;85;21191;-75
2021/07/24 06:44:27;;;;;;;13.08;9.18;;;;;;;25.48;54.28;100490.93;1647248;87;21062;-76
2021/07/24 06:46:54;;;;;;;15.15;9.13;;;;;;;25.48;53.57;100492.30;1647414;86;21700;-76
2021/07/24 06:49:20;;;;;;;18.40;9.15;;;;;;;25.42;53.25;100486.54;1646096;86;21017;-75
2021/07/24 06:51:46;;;;;;;12.73;9.03;;;;;;;25.68;53.04;100484.79;1646379;85;21481;-75
2021/07/24 06:54:12;;;;;;;15.28;8.80;;;;;;;25.98;52.73;100488.98;1646129;85;21143;-75
2021/07/24 06:56:38;;;;;;;12.58;8.70;;;;;;;26.23;52.35;100491.81;1632490;87;20981;-75
2021/07/24 06:59:04;;;;;;;17.45;9.53;;;;;;;26.40;51.93;100495.66;1681916;85;21922;-75
2021/07/24 07:01:30;;;;;;;13.48;8.83;;;;;;;26.57;51.70;100494.02;1682540;85;21032;-76
2021/07/24 07:03:56;;;;;;;11.95;9.08;;;;;;;26.40;51.06;100497.56;1682754;85;20917;-76
2021/07/24 07:06:22;;;;;;;12.85;8.78;;;;;;;26.35;50.93;100503.05;1682885;85;21013;-75
2021/07/24 07:08:48;;;;;;;11.45;9.45;;;;;;;26.65;50.71;100496.22;1682871;85;21044;-76
2021/07/24 07:11:14;;;;;;;17.90;8.70;;;;;;;26.68;50.01;100498.41;1682841;85;21878;-75
2021/07/24 07:13:40;;;;;;;13.83;9.23;;;;;;;26.54;49.63;100496.77;1682811;85;21004;-76
2021/07/24 07:16:08;;;;;;;13.20;9.03;;;;;;;26.42;49.30;100491.30;1682886;85;21024;-75
2021/07/24 07:18:35;;;;;;;16.48;8.50;;;;;;;26.66;49.17;100502.80;1682907;85;21517;-76
2021/07/24 07:21:01;;;;;;;14.30;8.60;;;;;;;26.68;48.76;100497.04;1682737;85;21025;-76
2021/07/24 07:23:27;;;;;;;15.55;8.53;;;;;;;26.80;48.56;100497.60;1682942;85;21837;-76
2021/07/24 07:25:53;;;;;;;14.15;9.05;;;;;;;27.00;48.43;100500.89;1682867;85;20988;-76
2021/07/24 07:28:20;;;;;;;17.37;8.88;;;;;;;27.29;48.20;100498.66;1682747;83;21065;-75
2021/07/24 07:30:46;;;;;;;14.55;9.18;;;;;;;27.53;47.97;100498.06;1680081;85;21012;-76
2021/07/24 07:33:12;;;;;;;16.02;9.08;;;;;;;27.44;47.49;100492.87;1644979;86;21045;-76
2021/07/24 07:35:38;;;;;;;16.30;8.53;;;;;;;27.49;47.24;100494.23;1628306;87;21839;-76
2021/07/24 07:38:04;;;;;;;16.00;7.28;;;;;;;27.38;46.47;100492.59;1630205;87;20998;-75
2021/07/24 07:40:30;;;;;;;11.78;7.78;;;;;;;27.38;46.45;100494.78;1647971;86;21009;-76
2021/07/24 07:42:56;;;;;;;11.10;8.18;;;;;;;27.15;46.01;100490.75;1637050;85;21410;-75
2021/07/24 07:45:22;;;;;;;12.53;6.80;;;;;;;27.14;45.91;100483.63;1635927;87;21028;-75
2021/07/24 07:47:48;;;;;;;10.95;7.67;;;;;;;27.07;45.74;100487.20;1633033;86;21928;-76
2021/07/24 07:50:14;;;;;;;11.12;8.50;;;;;;;27.21;45.70;100489.62;1649833;84;21002;-76
2021/07/24 07:52:40;;;;;;;12.10;8.03;;;;;;;27.48;45.56;100491.25;1601807;88;21066;-76
2021/07/24 07:55:07;;;;;;;8.85;7.20;;;;;;;27.49;45.10;100493.69;1680063;85;21004;-76
2021/07/24 07:57:33;;;;;;;10.32;7.62;;;;;;;27.47;45.04;100490.97;1694678;83;20962;-77
2021/07/24 07:59:59;;;;;;;17.80;6.78;;;;;;;27.73;44.97;100485.64;1700229;83;22602;-77
2021/07/24 08:02:26;;;;;;;11.05;6.95;;;;;;;27.90;44.51;100484.77;1711332;83;21014;-77
2021/07/24 08:04:52;;;;;;;11.73;6.90;;;;;;;27.98;44.19;100488.27;1710339;82;21115;-77
2021/07/24 08:07:18;;;;;;;11.03;6.70;;;;;;;28.02;43.74;100478.38;1684813;84;21024;-76
2021/07/24 08:09:44;;;;;;;8.40;6.62;;;;;;;27.91;43.09;100474.05;1673815;85;21378;-77
2021/07/24 08:12:10;;;;;;;12.58;6.47;;;;;;;28.00;42.99;100477.85;1643346;85;23006;-77
2021/07/24 08:14:36;;;;;;;9.00;6.78;;;;;;;28.16;42.73;100473.93;1642719;85;21084;-77
2021/07/24 08:17:03;;;;;;;11.57;7.37;;;;;;;28.31;42.42;100473.56;1630205;86;21028;-77
2021/07/24 08:19:29;;;;;;;9.73;6.75;;;;;;;28.37;42.25;100466.92;1626142;88;21096;-77
2021/07/24 08:21:55;;;;;;;8.58;6.78;;;;;;;28.51;42.07;100462.42;1631328;86;21040;-77
2021/07/24 08:24:21;;;;;;;15.78;8.20;;;;;;;28.66;41.99;100460.94;1657687;86;21811;-77
2021/07/24 08:26:47;;;;;;;8.95;6.58;;;;;;;28.70;41.61;100460.66;1660919;85;20976;-78
2021/07/24 08:29:13;;;;;;;9.78;6.65;;;;;;;28.66;40.97;100467.25;1679317;85;20957;-76
2021/07/24 08:31:40;;;;;;;14.47;7.03;;;;;;;28.35;40.43;100465.86;1681680;83;21013;-77
2021/07/24 08:34:06;;;;;;;11.18;6.65;;;;;;;28.13;39.98;100456.67;1654185;85;21033;-77
2021/07/24 08:36:32;;;;;;;13.85;6.72;;;;;;;28.19;39.91;100448.67;1677870;84;21903;-77
2021/07/24 08:38:58;;;;;;;14.53;7.45;;;;;;;28.36;39.85;100441.98;1673287;84;20948;-76
2021/07/24 08:41:24;;;;;;;14.45;7.08;;;;;;;28.55;39.83;100436.05;1645274;86;21076;-77
2021/07/24 08:43:50;;;;;;;9.10;6.45;;;;;;;28.48;39.24;100438.30;1671662;85;21005;-78
2021/07/24 08:46:16;;;;;;;11.97;7.15;;;;;;;28.42;39.27;100440.83;1680266;83;21516;-78
2021/07/24 08:48:42;;;;;;;10.70;7.45;;;;;;;28.51;39.25;100444.04;1680906;84;22568;-78
2021/07/24 08:51:08;;;;;;;16.05;8.25;;;;;;;28.36;38.69;100444.73;1685608;84;21033;-78
2021/07/24 08:53:35;;;;;;;15.63;7.28;;;;;;;28.34;38.52;100434.58;1632220;86;21051;-78
2021/07/24 08:56:08;;;;;;;8.53;6.70;;;;;;;28.20;38.03;100431.13;1635348;85;21440;-79
2021/07/24 08:58:35;;;;;;;10.82;7.60;;;;;;;27.97;37.50;100429.03;1669761;85;21048;-78
2021/07/24 09:01:01;;;;;;;12.45;7.10;;;;;;;27.99;37.71;100430.13;1653345;85;21990;-78
2021/07/24 09:03:27;;;;;;;12.70;8.13;;;;;;;28.31;37.97;100433.78;1646965;85;20937;-78
2021/07/24 09:05:53;;;;;;;7.80;6.65;;;;;;;28.35;37.56;100432.11;1603449;88;21022;-78
2021/07/24 09:08:20;;;;;;;17.12;7.87;;;;;;;28.21;37.32;100434.69;1610523;88;21040;-78
2021/07/24 09:10:47;;;;;;;11.38;7.90;;;;;;;28.11;36.95;100428.70;1619748;88;21127;-78
2021/07/24 09:13:14;;;;;;;16.20;6.70;;;;;;;28.01;36.71;100423.80;1628706;88;22380;-77
2021/07/24 09:15:40;;;;;;;12.35;6.58;;;;;;;28.04;36.71;100428.16;1669004;85;20985;-77
2021/07/24 09:18:06;;;;;;;11.20;7.67;;;;;;;28.16;36.91;100428.67;1708226;84;20995;-77
2021/07/24 09:20:32;;;;;;;14.73;7.72;;;;;;;28.27;36.90;100434.36;1691070;84;21019;-77
2021/07/24 09:22:58;;;;;;;8.28;6.53;;;;;;;28.50;37.05;100425.13;1674949;85;21432;-78
2021/07/24 09:25:24;;;;;;;9.95;7.70;;;;;;;28.67;36.98;100424.19;1592853;87;22044;-79
2021/07/24 09:27:52;;;;;;;14.70;6.62;;;;;;;28.70;37.00;100416.19;1663598;85;21428;-78
2021/07/24 09:30:28;;;;;;;10.30;6.95;;;;;;;28.83;36.75;100421.55;1674979;85;21417;-79
2021/07/24 09:33:13;;;;;;;9.98;7.25;;;;;;;28.72;36.66;100422.75;1673326;85;20928;-78
2021/07/24 09:35:44;;;;;;;14.05;7.47;;;;;;;28.70;36.45;100412.07;1672368;83;21436;-78
2021/07/24 09:38:16;;;;;;;12.35;6.67;;;;;;;28.50;36.18;100419.65;1680861;83;22325;-78
2021/07/24 09:40:46;;;;;;;9.30;7.05;;;;;;;28.25;35.96;100411.86;1655483;83;20966;-78
2021/07/24 09:43:36;;;;;;;9.18;6.40;;;;;;;28.15;35.94;100406.45;1660907;84;21060;-78
2021/07/24 09:46:18;;;;;;;16.25;7.10;;;;;;;28.35;36.16;100404.67;1659942;85;21421;-79
2021/07/24 09:48:49;;;;;;;11.45;7.10;;;;;;;28.47;36.15;100405.92;1672060;84;21038;-78
2021/07/24 09:51:19;;;;;;;7.08;6.35;;;;;;;28.54;35.95;100406.41;1673000;83;21814;-79
2021/07/24 09:53:45;;;;;;;9.50;6.90;;;;;;;28.78;36.00;100406.52;1678313;84;21454;-78
2021/07/24 09:56:14;;;;;;;12.25;7.55;;;;;;;28.88;35.77;100406.41;1681970;85;20960;-78
2021/07/24 09:58:41;;;;;;;9.83;7.87;;;;;;;28.87;35.64;100401.19;1682934;85;21135;-78
2021/07/24 10:01:09;;;;;;;9.55;7.28;;;;;;;28.89;35.44;100410.77;1682778;85;20957;-79
2021/07/24 10:03:38;;;;;;;12.20;7.42;;;;;;;28.91;35.51;100415.42;1660070;83;21820;-75
2021/07/24 10:06:14;;;;;;;8.83;6.85;;;;;;;28.91;35.23;100411.86;1682579;83;21032;-76
2021/07/24 10:08:42;;;;;;;9.58;6.90;;;;;;;28.79;35.17;100405.38;1681116;84;21027;-76
2021/07/24 10:11:09;;;;;;;9.45;7.47;;;;;;;28.70;35.10;100404.39;1659310;85;21113;-76
2021/07/24 10:13:35;;;;;;;11.38;7.25;;;;;;;28.62;35.15;100400.30;1691967;83;21009;-76
2021/07/24 10:16:01;;;;;;;10.20;7.03;;;;;;;28.76;35.19;100401.84;1677802;84;21970;-76
2021/07/24 10:18:27;;;;;;;12.82;7.40;;;;;;;28.77;34.94;100407.61;1673449;84;20984;-76
2021/07/24 10:20:53;;;;;;;7.78;6.95;;;;;;;28.84;34.79;100405.34;1633920;87;21065;-76
2021/07/24 10:23:24;;;;;;;8.08;7.28;;;;;;;29.05;34.76;100397.15;1648138;86;21438;-76
2021/07/24 10:26:10;;;;;;;8.20;6.95;;;;;;;29.13;34.71;100401.19;1650220;85;21580;-76
2021/07/24 10:28:58;;;;;;;10.15;7.60;;;;;;;29.18;34.47;100405.23;1649093;85;21819;-76
2021/07/24 10:31:35;;;;;;;10.80;7.70;;;;;;;29.25;34.47;100399.64;1674586;84;21009;-76
2021/07/24 10:34:02;;;;;;;8.83;7.60;;;;;;;29.62;34.55;100403.62;1674556;85;21020;-76
2021/07/24 10:36:40;;;;;;;9.38;7.12;;;;;;;29.72;34.43;100403.47;1674679;85;21429;-76
2021/07/24 10:39:11;;;;;;;9.48;8.08;;;;;;;29.54;34.21;100395.47;1644913;87;21100;-76
2021/07/24 10:41:38;;;;;;;8.85;6.90;;;;;;;29.37;33.84;100388.83;1647576;87;21746;-76
2021/07/24 10:44:08;;;;;;;8.28;7.30;;;;;;;29.51;34.05;100392.49;1682238;85;20936;-76
2021/07/24 10:46:48;;;;;;;7.87;6.33;;;;;;;29.80;34.07;100389.06;1682650;85;21041;-76
2021/07/24 10:49:39;;;;;;;12.50;8.00;;;;;;;30.08;34.05;100392.21;1677565;85;21017;-76
2021/07/24 10:52:07;;;;;;;13.80;9.75;;;;;;;29.83;33.73;100391.77;1674871;85;21434;-76
2021/07/24 10:54:34;;;;;;;12.13;9.10;;;;;;;29.53;33.98;100384.75;1675143;84;22024;-76
2021/07/24 10:57:00;;;;;;;11.90;8.08;;;;;;;29.36;34.27;100388.56;1675196;85;21015;-76
2021/07/24 10:59:27;;;;;;;9.70;7.67;;;;;;;29.32;34.35;100382.01;1675321;85;20993;-76
2021/07/24 11:01:58;;;;;;;8.30;7.40;;;;;;;29.43;34.46;100382.14;1674906;84;21219;-76
2021/07/24 11:04:40;;;;;;;10.05;7.95;;;;;;;29.77;34.42;100381.97;1674749;85;20989;-76
2021/07/24 11:07:24;;;;;;;8.33;6.97;;;;;;;29.89;33.95;100374.92;1674982;85;22708;-76
2021/07/24 11:09:59;;;;;;;8.65;7.47;;;;;;;29.87;33.89;100374.42;1675113;85;21001;-76
2021/07/24 11:12:38;;;;;;;9.20;7.70;;;;;;;29.81;33.72;100375.55;1675727;84;21068;-76
2021/07/24 11:15:10;;;;;;;9.53;7.50;;;;;;;29.48;33.65;100373.84;1643756;86;21066;-76
2021/07/24 11:17:36;;;;;;;10.60;7.47;;;;;;;29.15;33.53;100370.93;1673747;85;21001;-76